createdAt,value
2022-07-25T00:01:28.681Z,6.55
2022-07-25T00:03:58.082Z,6.13
2022-07-25T00:06:25.745Z,6.15
2022-07-25T00:08:53.654Z,5.72
2022-07-25T00:11:21.315Z,6.80
2022-07-25T00:13:49.145Z,6.57
2022-07-25T00:16:17.083Z,6.22
2022-07-25T00:18:44.973Z,5.85
2022-07-25T00:21:13.369Z,6.50
2022-07-25T00:23:41.483Z,7.18
2022-07-25T00:26:09.329Z,6.35
2022-07-25T00:28:37.356Z,6.40
2022-07-25T00:31:05.446Z,6.47
2022-07-25T00:33:33.302Z,6.78
2022-07-25T00:36:01.388Z,7.07
2022-07-25T00:38:29.311Z,6.18
2022-07-25T00:40:57.419Z,6.45
2022-07-25T00:43:25.087Z,6.50
2022-07-25T00:45:52.754Z,5.95
2022-07-25T00:48:20.924Z,6.43
2022-07-25T00:50:48.793Z,6.55
2022-07-25T00:53:16.845Z,6.95
2022-07-25T00:55:44.816Z,7.10
2022-07-25T00:58:12.602Z,6.68
2022-07-25T01:00:40.409Z,6.88
2022-07-25T01:03:08.636Z,7.15
2022-07-25T01:05:36.665Z,6.55
2022-07-25T01:08:04.604Z,6.93
2022-07-25T01:10:33.083Z,7.07
2022-07-25T01:13:00.798Z,7.13
2022-07-25T01:15:28.650Z,6.85
2022-07-25T01:17:56.776Z,7.15
2022-07-25T01:20:25.527Z,7.43
2022-07-25T01:22:54.021Z,6.53
2022-07-25T01:25:21.931Z,7.07
2022-07-25T01:27:55.112Z,5.88
2022-07-25T01:30:24.559Z,6.82
2022-07-25T01:32:52.945Z,7.30
2022-07-25T01:35:20.970Z,7.65
2022-07-25T01:37:48.815Z,6.72
2022-07-25T01:40:16.609Z,6.53
2022-07-25T01:42:44.810Z,7.00
2022-07-25T01:45:13.127Z,7.28
2022-07-25T01:47:41.480Z,8.18
2022-07-25T01:50:09.729Z,7.47
2022-07-25T01:52:39.711Z,6.97
2022-07-25T01:55:07.791Z,6.83
2022-07-25T01:57:36.193Z,6.72
2022-07-25T02:00:08.608Z,7.70
2022-07-25T02:02:40.447Z,7.22
2022-07-25T02:05:11.033Z,6.90
2022-07-25T02:07:39.531Z,6.72
2022-07-25T02:10:07.795Z,6.50
2022-07-25T02:12:35.450Z,6.80
2022-07-25T02:15:03.352Z,6.95
2022-07-25T02:17:31.243Z,7.40
2022-07-25T02:19:59.041Z,7.25
2022-07-25T02:22:27.160Z,7.40
2022-07-25T02:24:54.919Z,7.53
2022-07-25T02:27:23.253Z,7.30
2022-07-25T02:29:51.033Z,7.78
2022-07-25T02:32:19.315Z,7.55
2022-07-25T02:34:47.008Z,7.57
2022-07-25T02:37:15.137Z,6.95
2022-07-25T02:39:42.894Z,7.25
2022-07-25T02:42:10.586Z,7.05
2022-07-25T02:44:38.500Z,7.68
2022-07-25T02:47:06.403Z,7.35
2022-07-25T02:49:34.168Z,6.65
2022-07-25T02:52:01.753Z,7.65
2022-07-25T02:54:29.384Z,7.68
2022-07-25T02:56:57.140Z,7.55
2022-07-25T02:59:24.934Z,7.65
2022-07-25T03:02:00.115Z,7.07
2022-07-25T03:04:27.950Z,7.97
2022-07-25T03:06:55.673Z,7.82
2022-07-25T03:09:23.338Z,7.28
2022-07-25T03:11:52.381Z,7.85
2022-07-25T03:14:20.066Z,7.82
2022-07-25T03:16:47.872Z,7.57
2022-07-25T03:19:15.582Z,7.50
2022-07-25T03:21:43.317Z,8.15
2022-07-25T03:24:11.214Z,7.28
2022-07-25T03:26:39.042Z,7.30
2022-07-25T03:29:07.127Z,8.60
2022-07-25T03:31:35.147Z,8.90
2022-07-25T03:34:02.986Z,7.80
2022-07-25T03:36:31.349Z,7.50
2022-07-25T03:38:59.084Z,7.88
2022-07-25T03:41:27.938Z,8.18
2022-07-25T03:43:56.109Z,8.27
2022-07-25T03:46:23.770Z,7.75
2022-07-25T03:48:51.401Z,7.80
2022-07-25T03:51:19.085Z,8.77
2022-07-25T03:54:01.747Z,7.68
2022-07-25T03:56:30.048Z,8.23
2022-07-25T03:58:57.639Z,8.35
2022-07-25T04:01:26.641Z,7.88
2022-07-25T04:03:54.615Z,9.25
2022-07-25T04:06:23.436Z,8.52
2022-07-25T04:08:51.096Z,8.55
2022-07-25T04:11:18.849Z,9.00
2022-07-25T04:13:46.578Z,8.40
2022-07-25T04:16:18.394Z,8.85
2022-07-25T04:18:51.136Z,8.20
2022-07-25T04:21:19.320Z,8.60
2022-07-25T04:23:46.912Z,9.18
2022-07-25T04:26:14.537Z,8.10
2022-07-25T04:28:42.261Z,7.90
2022-07-25T04:31:10.070Z,8.88
2022-07-25T04:33:38.382Z,8.77
2022-07-25T04:36:06.416Z,8.15
2022-07-25T04:38:34.734Z,7.88
2022-07-25T04:41:02.623Z,7.95
2022-07-25T04:43:30.586Z,8.13
2022-07-25T04:45:58.418Z,8.15
2022-07-25T04:48:26.291Z,8.25
2022-07-25T04:50:54.132Z,9.52
2022-07-25T04:53:22.029Z,7.68
2022-07-25T04:55:49.793Z,9.32
2022-07-25T04:58:17.655Z,8.93
2022-07-25T05:00:45.497Z,9.05
2022-07-25T05:03:13.332Z,9.13
2022-07-25T05:05:42.373Z,9.25
2022-07-25T05:08:13.605Z,8.25
2022-07-25T05:10:41.381Z,9.45
2022-07-25T05:13:09.592Z,8.85
2022-07-25T05:15:37.306Z,10.00
2022-07-25T05:18:05.679Z,8.60
2022-07-25T05:20:40.927Z,11.10
2022-07-25T05:23:08.748Z,9.15
2022-07-25T05:25:36.508Z,8.93
2022-07-25T05:28:04.315Z,8.52
2022-07-25T05:30:35.308Z,8.75
2022-07-25T05:33:05.668Z,9.70
2022-07-25T05:35:33.535Z,9.63
2022-07-25T05:38:01.314Z,9.23
2022-07-25T05:40:29.116Z,9.38
2022-07-25T05:43:00.944Z,9.05
2022-07-25T05:45:33.357Z,9.23
2022-07-25T05:48:01.470Z,9.32
2022-07-25T05:50:29.291Z,8.93
2022-07-25T05:52:57.145Z,8.90
2022-07-25T05:55:24.825Z,10.35
2022-07-25T05:57:52.734Z,9.27
2022-07-25T06:00:20.553Z,9.15
2022-07-25T06:02:48.542Z,9.48
2022-07-25T06:05:16.749Z,9.32
2022-07-25T06:07:44.548Z,9.68
2022-07-25T06:10:12.295Z,9.05
2022-07-25T06:12:40.048Z,8.68
2022-07-25T06:15:22.121Z,9.68
2022-07-25T06:17:50.469Z,8.50
2022-07-25T06:20:18.304Z,8.80
2022-07-25T06:22:46.028Z,9.23
2022-07-25T06:25:13.856Z,9.23
2022-07-25T06:27:41.813Z,8.98
2022-07-25T06:30:19.189Z,9.30
2022-07-25T06:32:51.337Z,8.98
2022-07-25T06:35:19.775Z,9.25
2022-07-25T06:37:47.476Z,8.70
2022-07-25T06:40:18.057Z,8.50
2022-07-25T06:45:15.737Z,8.32
2022-07-25T06:47:44.617Z,8.27
2022-07-25T06:50:13.478Z,8.18
2022-07-25T06:52:42.744Z,8.18
2022-07-25T06:55:11.718Z,8.00
2022-07-25T06:57:43.414Z,7.95
2022-07-25T07:00:12.729Z,8.88
2022-07-25T07:02:49.853Z,8.25
2022-07-25T07:05:17.666Z,8.63
2022-07-25T07:07:48.376Z,8.40
2022-07-25T07:10:16.901Z,9.50
2022-07-25T07:12:45.132Z,8.57
2022-07-25T07:15:13.269Z,8.70
2022-07-25T07:17:41.031Z,8.27
2022-07-25T07:20:09.744Z,9.55
2022-07-25T07:22:47.377Z,8.45
2022-07-25T07:25:16.386Z,9.05
2022-07-25T07:27:45.226Z,8.87
2022-07-25T07:30:14.921Z,8.50
2022-07-25T07:32:42.990Z,8.43
2022-07-25T07:35:11.414Z,8.65
2022-07-25T07:37:43.384Z,9.65
2022-07-25T07:40:17.721Z,10.35
2022-07-25T07:42:47.836Z,8.52
2022-07-25T07:45:17.128Z,8.50
2022-07-25T07:47:47.984Z,8.55
2022-07-25T07:50:19.957Z,9.35
2022-07-25T07:52:47.679Z,8.57
2022-07-25T07:55:34.609Z,8.30
2022-07-25T07:58:02.729Z,7.95
2022-07-25T08:00:31.270Z,8.43
2022-07-25T08:03:00.417Z,9.20
2022-07-25T08:05:33.279Z,9.00
2022-07-25T08:08:01.217Z,8.25
2022-07-25T08:10:30.264Z,9.05
2022-07-25T08:12:58.590Z,7.93
2022-07-25T08:15:26.360Z,9.00
2022-07-25T08:17:54.181Z,10.18
2022-07-25T08:20:38.049Z,8.95
2022-07-25T08:23:06.663Z,8.77
2022-07-25T08:25:35.940Z,8.82
2022-07-25T08:28:05.160Z,8.63
2022-07-25T08:30:33.097Z,7.97
2022-07-25T08:33:01.553Z,8.15
2022-07-25T08:35:29.277Z,8.45
2022-07-25T08:37:57.507Z,8.50
2022-07-25T08:40:26.341Z,8.07
2022-07-25T08:42:58.554Z,8.00
2022-07-25T08:45:28.017Z,8.13
2022-07-25T08:47:56.009Z,8.10
2022-07-25T08:50:25.464Z,7.90
2022-07-25T08:53:04.860Z,5.73
2022-07-25T08:55:42.420Z,7.00
2022-07-25T08:58:11.691Z,7.63
2022-07-25T09:00:39.907Z,6.72
2022-07-25T09:03:07.849Z,7.65
2022-07-25T09:05:36.838Z,7.82
2022-07-25T09:08:12.100Z,7.88
2022-07-25T09:10:46.260Z,7.15
2022-07-25T09:13:14.933Z,7.38
2022-07-25T09:15:47.152Z,6.88
2022-07-25T09:18:16.390Z,7.50
2022-07-25T09:20:46.139Z,7.20
2022-07-25T09:23:15.783Z,7.50
2022-07-25T09:25:44.319Z,7.50
2022-07-25T09:28:15.975Z,7.13
2022-07-25T09:31:00.491Z,7.47
2022-07-25T09:33:31.182Z,7.57
2022-07-25T09:35:59.068Z,6.70
2022-07-25T09:38:26.981Z,7.57
2022-07-25T09:41:03.479Z,7.18
2022-07-25T09:43:40.625Z,6.65
2022-07-25T09:46:09.211Z,7.47
2022-07-25T09:48:37.589Z,7.30
2022-07-25T09:51:05.561Z,6.78
2022-07-25T09:53:33.564Z,6.78
2022-07-25T09:56:01.270Z,6.60
2022-07-25T09:58:29.872Z,6.80
2022-07-25T10:01:01.690Z,6.75
2022-07-25T10:03:29.379Z,6.05
2022-07-25T10:06:03.562Z,6.07
2022-07-25T10:08:35.937Z,5.85
2022-07-25T10:11:05.426Z,6.35
2022-07-25T10:13:34.958Z,6.05
2022-07-25T10:16:03.301Z,6.10
2022-07-25T10:18:33.118Z,6.38
2022-07-25T10:21:24.948Z,6.35
2022-07-25T10:24:02.744Z,6.25
2022-07-25T10:26:31.052Z,6.32
2022-07-25T10:28:59.608Z,5.53
2022-07-25T10:31:34.551Z,5.85
2022-07-25T10:34:12.682Z,5.35
2022-07-25T10:36:45.078Z,4.93
2022-07-25T10:39:15.070Z,6.15
2022-07-25T10:44:14.932Z,5.03
2022-07-25T10:46:46.241Z,5.28
2022-07-25T10:49:19.472Z,5.53
2022-07-25T10:51:57.681Z,4.72
2022-07-25T10:54:25.672Z,4.10
2022-07-25T10:56:53.389Z,4.78
2022-07-25T10:59:30.302Z,4.88
2022-07-25T11:01:58.180Z,4.35
2022-07-25T11:04:26.294Z,4.18
2022-07-25T11:06:54.181Z,4.03
2022-07-25T11:09:27.237Z,3.95
2022-07-25T11:11:56.534Z,3.90
2022-07-25T11:14:27.090Z,5.30
2022-07-25T11:16:56.220Z,4.22
2022-07-25T11:19:28.568Z,4.43
2022-07-25T11:22:00.250Z,4.22
2022-07-25T11:24:40.489Z,4.47
2022-07-25T11:27:12.404Z,4.88
2022-07-25T11:29:40.665Z,4.95
2022-07-25T11:32:12.256Z,4.03
2022-07-25T11:34:43.285Z,4.20
2022-07-25T11:37:12.108Z,4.20
2022-07-25T11:39:41.517Z,4.65
2022-07-25T11:42:17.971Z,4.28
2022-07-25T11:44:48.020Z,4.03
2022-07-25T11:47:32.630Z,4.72
2022-07-25T11:50:02.209Z,3.75
2022-07-25T11:52:31.481Z,3.50
2022-07-25T11:55:02.519Z,3.92
2022-07-25T11:57:31.642Z,4.05
2022-07-25T12:00:03.292Z,4.10
2022-07-25T12:02:37.222Z,3.75
2022-07-25T12:05:06.572Z,3.67
2022-07-25T12:07:38.815Z,3.67
2022-07-25T12:10:07.852Z,3.88
2022-07-25T12:12:42.866Z,4.07
2022-07-25T12:15:13.251Z,3.90
2022-07-25T12:17:41.626Z,4.18
2022-07-25T12:20:20.444Z,3.80
2022-07-25T12:22:54.488Z,3.72
2022-07-25T12:25:24.401Z,3.72
2022-07-25T12:27:57.621Z,4.75
2022-07-25T12:30:26.355Z,3.75
2022-07-25T12:32:54.997Z,3.78
2022-07-25T12:35:23.805Z,4.10
2022-07-25T12:37:52.506Z,3.80
2022-07-25T12:40:20.620Z,3.78
2022-07-25T12:42:51.415Z,3.90
2022-07-25T12:45:19.782Z,3.58
2022-07-25T12:47:48.131Z,3.42
2022-07-25T12:50:16.797Z,4.10
2022-07-25T12:52:45.102Z,3.45
2022-07-25T12:55:14.150Z,3.95
2022-07-25T12:57:42.035Z,3.58
2022-07-25T13:00:12.602Z,3.92
2022-07-25T13:02:40.693Z,3.55
2022-07-25T13:05:08.735Z,3.70
2022-07-25T13:07:36.782Z,3.78
2022-07-25T13:10:05.301Z,3.92
2022-07-25T13:12:33.050Z,3.92
2022-07-25T13:15:01.799Z,4.13
2022-07-25T13:17:29.819Z,4.10
2022-07-25T13:20:00.068Z,3.92
2022-07-25T13:22:30.452Z,4.13
2022-07-25T13:24:58.396Z,3.33
2022-07-25T13:27:26.159Z,3.90
2022-07-25T13:29:59.123Z,3.70
2022-07-25T13:32:28.613Z,3.53
2022-07-25T13:34:56.400Z,3.63
2022-07-25T13:37:26.793Z,4.28
2022-07-25T13:39:54.526Z,3.55
2022-07-25T13:42:23.178Z,3.60
2022-07-25T13:44:51.070Z,3.85
2022-07-25T13:47:18.966Z,3.80
2022-07-25T13:49:46.881Z,3.88
2022-07-25T13:52:14.676Z,4.05
2022-07-25T13:54:42.726Z,4.30
2022-07-25T13:57:10.803Z,3.92
2022-07-25T13:59:38.768Z,4.13
2022-07-25T14:02:07.852Z,4.25
2022-07-25T14:04:37.158Z,4.57
2022-07-25T14:07:05.075Z,4.00
2022-07-25T14:09:32.897Z,3.78
2022-07-25T14:12:00.703Z,4.43
2022-07-25T14:14:28.728Z,4.00
2022-07-25T14:16:58.896Z,4.70
2022-07-25T14:19:26.927Z,4.38
2022-07-25T14:21:54.678Z,4.15
2022-07-25T14:24:22.468Z,3.92
2022-07-25T14:26:50.346Z,4.00
2022-07-25T14:29:22.460Z,3.85
2022-07-25T14:31:52.846Z,3.85
2022-07-25T14:34:20.713Z,4.57
2022-07-25T14:36:49.835Z,4.20
2022-07-25T14:39:19.608Z,3.67
2022-07-25T14:46:45.109Z,4.40
2022-07-25T14:49:14.401Z,3.92
2022-07-25T14:51:43.105Z,3.67
2022-07-25T14:54:10.942Z,4.10
2022-07-25T14:56:40.578Z,4.67
2022-07-25T14:59:09.079Z,4.13
2022-07-25T15:01:38.202Z,4.15
2022-07-25T15:04:08.174Z,4.35
2022-07-25T15:06:36.717Z,4.80
2022-07-25T15:09:05.322Z,3.67
2022-07-25T15:11:35.633Z,4.20
2022-07-25T15:14:03.420Z,4.18
2022-07-25T15:16:31.292Z,4.53
2022-07-25T15:19:17.426Z,4.00
2022-07-25T15:21:46.207Z,4.63
2022-07-25T15:24:14.251Z,4.22
2022-07-25T15:26:42.256Z,4.10
2022-07-25T15:29:12.023Z,3.92
2022-07-25T15:31:40.059Z,4.18
2022-07-25T15:34:08.247Z,4.40
2022-07-25T15:36:36.006Z,4.80
2022-07-25T15:39:04.090Z,4.15
2022-07-25T15:41:33.665Z,3.55
2022-07-25T15:44:01.496Z,3.97
2022-07-25T15:46:29.582Z,4.00
2022-07-25T15:48:57.954Z,3.90
2022-07-25T15:51:28.839Z,3.97
2022-07-25T15:53:56.478Z,3.90
2022-07-25T15:56:25.643Z,3.80
2022-07-25T15:58:53.490Z,3.88
2022-07-25T16:01:21.188Z,3.40
2022-07-25T16:03:49.076Z,3.75
2022-07-25T16:06:23.080Z,4.10
2022-07-25T16:08:51.000Z,3.30
2022-07-25T16:11:24.669Z,3.88
2022-07-25T16:13:56.369Z,3.17
2022-07-25T16:16:26.092Z,3.38
2022-07-25T16:18:54.705Z,3.58
2022-07-25T16:21:23.112Z,3.90
2022-07-25T16:23:51.307Z,3.50
2022-07-25T16:26:22.088Z,3.30
2022-07-25T16:28:57.519Z,3.65
2022-07-25T16:31:27.322Z,3.78
2022-07-25T16:33:59.521Z,3.85
2022-07-25T16:36:30.101Z,4.00
2022-07-25T16:38:58.752Z,4.07
2022-07-25T16:41:30.598Z,3.67
2022-07-25T16:43:59.644Z,4.10
2022-07-25T16:46:28.675Z,4.05
2022-07-25T16:48:57.091Z,3.47
2022-07-25T16:51:27.463Z,3.70
2022-07-25T16:53:55.915Z,3.85
2022-07-25T16:56:23.888Z,4.07
2022-07-25T16:58:51.881Z,3.60
2022-07-25T17:01:20.348Z,3.33
2022-07-25T17:03:48.914Z,3.50
2022-07-25T17:06:19.984Z,4.10
2022-07-25T17:08:48.254Z,3.72
2022-07-25T17:11:16.104Z,3.65
2022-07-25T17:13:44.184Z,3.53
2022-07-25T17:16:15.444Z,3.65
2022-07-25T17:18:43.492Z,4.00
2022-07-25T17:21:17.129Z,3.90
2022-07-25T17:23:45.825Z,3.85
2022-07-25T17:26:14.193Z,4.60
2022-07-25T17:28:42.054Z,4.13
2022-07-25T17:31:11.975Z,3.88
2022-07-25T17:36:08.781Z,3.50
2022-07-25T17:38:37.695Z,3.00
2022-07-25T17:41:08.854Z,3.42
2022-07-25T17:43:37.001Z,3.72
2022-07-25T17:46:05.163Z,3.70
2022-07-25T17:48:33.325Z,4.20
2022-07-25T17:51:04.404Z,3.83
2022-07-25T17:53:32.507Z,3.20
2022-07-25T17:56:00.500Z,3.17
2022-07-25T17:58:28.412Z,3.58
2022-07-25T18:01:00.996Z,3.28
2022-07-25T18:03:29.304Z,3.60
2022-07-25T18:05:57.356Z,3.60
2022-07-25T18:08:25.870Z,3.30
2022-07-25T18:10:53.820Z,3.58
2022-07-25T18:13:57.315Z,3.63
2022-07-25T18:20:09.838Z,3.50
2022-07-25T18:22:50.020Z,3.47
2022-07-25T18:25:20.262Z,3.60
2022-07-25T18:27:48.488Z,3.67
2022-07-25T18:30:17.073Z,3.53
2022-07-25T18:32:48.069Z,3.42
2022-07-25T18:35:25.382Z,2.85
2022-07-25T18:37:53.844Z,3.55
2022-07-25T18:40:22.350Z,4.05
2022-07-25T18:42:50.416Z,4.00
2022-07-25T18:45:18.728Z,3.50
2022-07-25T18:47:47.196Z,3.47
2022-07-25T18:50:15.139Z,3.70
2022-07-25T18:52:45.838Z,3.55
2022-07-25T18:55:20.225Z,3.60
2022-07-25T18:57:49.570Z,3.85
2022-07-25T19:00:17.838Z,3.85
2022-07-25T19:02:45.743Z,3.33
2022-07-25T19:05:13.584Z,4.18
2022-07-25T19:07:44.950Z,3.95
2022-07-25T19:10:16.374Z,3.75
2022-07-25T19:12:44.653Z,3.70
2022-07-25T19:15:15.839Z,4.15
2022-07-25T19:17:45.659Z,4.50
2022-07-25T19:20:14.191Z,4.82
2022-07-25T19:22:44.268Z,3.97
2022-07-25T19:25:16.850Z,3.78
2022-07-25T19:27:47.876Z,4.30
2022-07-25T19:30:19.638Z,4.28
2022-07-25T19:32:47.859Z,4.10
2022-07-25T19:38:05.611Z,3.95
2022-07-25T19:40:34.138Z,4.60
2022-07-25T19:43:02.149Z,4.38
2022-07-25T19:45:32.933Z,3.80
2022-07-25T19:48:01.106Z,3.85
2022-07-25T19:50:29.440Z,4.30
2022-07-25T19:52:57.358Z,3.17
2022-07-25T19:55:25.735Z,3.33
2022-07-25T19:57:54.367Z,3.88
2022-07-25T20:00:22.596Z,4.05
2022-07-25T20:02:50.616Z,3.83
2022-07-25T20:05:18.949Z,3.35
2022-07-25T20:07:47.019Z,3.95
2022-07-25T20:10:17.964Z,4.22
2022-07-25T20:12:46.212Z,3.42
2022-07-25T20:15:17.155Z,3.47
2022-07-25T20:17:45.002Z,3.88
2022-07-25T20:20:13.161Z,3.80
2022-07-25T20:22:43.462Z,4.05
2022-07-25T20:25:15.065Z,3.25
2022-07-25T20:27:42.904Z,3.10
2022-07-25T20:30:11.935Z,3.33
2022-07-25T20:32:39.789Z,3.08
2022-07-25T20:35:08.236Z,3.22
2022-07-25T20:37:35.957Z,3.33
2022-07-25T20:40:04.396Z,3.13
2022-07-25T20:42:32.763Z,3.22
2022-07-25T20:45:00.579Z,2.60
2022-07-25T20:47:28.682Z,2.97
2022-07-25T20:49:56.479Z,2.47
2022-07-25T20:52:28.068Z,2.28
2022-07-25T20:54:55.922Z,2.60
2022-07-25T20:57:24.087Z,2.05
2022-07-25T20:59:52.143Z,2.58
2022-07-25T21:02:20.369Z,2.50
2022-07-25T21:04:48.791Z,2.55
2022-07-25T21:07:17.388Z,3.25
2022-07-25T21:09:45.668Z,3.13
2022-07-25T21:12:13.553Z,2.33
2022-07-25T21:14:41.812Z,2.38
2022-07-25T21:17:10.035Z,2.10
2022-07-25T21:19:38.779Z,1.42
2022-07-25T21:22:06.804Z,1.77
2022-07-25T21:24:34.920Z,3.13
2022-07-25T21:27:05.515Z,1.95
2022-07-25T21:29:33.755Z,2.25
2022-07-25T21:32:03.685Z,2.05
2022-07-25T21:34:31.716Z,1.98
2022-07-25T21:36:59.798Z,1.48
2022-07-25T21:39:28.081Z,1.95
2022-07-25T21:41:56.349Z,2.22
2022-07-25T21:44:25.359Z,1.65
2022-07-25T21:46:53.800Z,2.00
2022-07-25T21:49:42.527Z,2.95
2022-07-25T21:52:13.905Z,1.77
2022-07-25T21:54:45.388Z,2.15
2022-07-25T21:57:14.905Z,2.88
2022-07-25T21:59:45.495Z,1.90
2022-07-25T22:04:42.075Z,2.10
2022-07-25T22:07:10.549Z,1.95
2022-07-25T22:09:38.812Z,2.10
2022-07-25T22:12:08.642Z,1.95
2022-07-25T22:14:38.174Z,1.80
2022-07-25T22:17:06.159Z,2.10
2022-07-25T22:19:34.418Z,1.75
2022-07-25T22:22:02.661Z,1.90
2022-07-25T22:24:30.791Z,1.70
2022-07-25T22:26:58.595Z,1.73
2022-07-25T22:29:26.866Z,2.53
2022-07-25T22:32:02.508Z,1.77
2022-07-25T22:34:31.569Z,1.88
2022-07-25T22:37:01.602Z,1.85
2022-07-25T22:39:29.370Z,1.98
2022-07-25T22:41:57.914Z,1.95
2022-07-25T22:44:26.573Z,1.90
2022-07-25T22:46:54.228Z,2.05
2022-07-25T22:49:23.713Z,1.75
2022-07-25T22:51:52.769Z,1.40
2022-07-25T22:54:20.737Z,1.63
2022-07-25T22:56:50.069Z,1.83
2022-07-25T22:59:18.055Z,1.77
2022-07-25T23:01:45.958Z,1.50
2022-07-25T23:04:13.824Z,1.75
2022-07-25T23:06:42.931Z,1.70
2022-07-25T23:09:15.255Z,1.95
2022-07-25T23:11:43.297Z,1.88
2022-07-25T23:14:11.070Z,1.55
2022-07-25T23:16:39.867Z,1.95
2022-07-25T23:19:08.090Z,1.40
2022-07-25T23:21:36.905Z,1.60
2022-07-25T23:26:34.658Z,1.65
2022-07-25T23:29:03.188Z,1.20
2022-07-25T23:31:32.039Z,1.70
2022-07-25T23:34:04.646Z,1.30
2022-07-25T23:36:32.853Z,1.45
2022-07-25T23:39:02.736Z,1.20
2022-07-25T23:41:35.167Z,1.33
2022-07-25T23:44:08.541Z,1.60
2022-07-25T23:46:42.645Z,1.25
2022-07-25T23:52:06.250Z,1.20
2022-07-25T23:54:39.232Z,1.30
2022-07-25T23:57:10.608Z,0.85
2022-07-25T23:59:38.408Z,1.38
